Time;durP1;ratioP1;P1;durP2;ratioP2;P2;SDS_P1;SDS_P2;PMS_P1;PMS_P2;Temp;Humidity;BMP_temperature;BMP_pressure;BME280_temperature;BME280_humidity;BME280_pressure;Samples;Min_cycle;Max_cycle;Signal;HPM_P1;HPM_P2
2023/08/05 00:01:25;;;;;;;10.93;3.10;;;;;;;17.90;68.54;101681.34;7395248;19;20022;-68
2023/08/05 00:03:53;;;;;;;9.18;2.60;;;;;;;17.95;68.34;101687.13;7394132;19;20038;-70
2023/08/05 00:06:20;;;;;;;10.68;2.85;;;;;;;17.92;68.76;101679.34;7393695;19;20426;-68
2023/08/05 00:08:47;;;;;;;7.00;2.45;;;;;;;17.85;69.02;101681.72;7395720;19;20014;-68
2023/08/05 00:11:15;;;;;;;11.02;2.53;;;;;;;17.94;68.54;101680.91;7395595;19;20028;-65
2023/08/05 00:13:42;;;;;;;9.98;2.72;;;;;;;17.92;68.94;101677.50;7395038;19;20015;-69
2023/08/05 00:16:09;;;;;;;11.75;2.90;;;;;;;17.94;68.67;101677.38;7393345;19;20373;-69
2023/08/05 00:18:37;;;;;;;10.40;2.72;;;;;;;17.90;68.98;101668.78;7395126;19;20039;-67
2023/08/05 00:21:04;;;;;;;12.18;3.05;;;;;;;17.96;68.93;101670.03;7393311;19;20039;-67
2023/08/05 00:23:31;;;;;;;12.90;3.13;;;;;;;17.90;69.19;101676.81;7392644;19;20011;-68
2023/08/05 00:25:59;;;;;;;13.90;2.90;;;;;;;17.95;69.18;101673.72;7393011;19;20014;-62
2023/08/05 00:28:26;;;;;;;9.98;2.60;;;;;;;17.92;69.14;101677.50;7394787;19;20479;-64
2023/08/05 00:30:54;;;;;;;8.98;2.97;;;;;;;17.87;69.55;101669.03;7392638;19;20090;-68
2023/08/05 00:33:21;;;;;;;9.25;2.92;;;;;;;17.86;69.52;101670.03;7392362;19;20119;-65
2023/08/05 00:35:48;;;;;;;7.20;2.65;;;;;;;17.92;69.44;101665.94;7391257;19;20022;-65
2023/08/05 00:38:16;;;;;;;11.55;2.75;;;;;;;17.98;69.20;101666.25;7392700;19;20041;-68
2023/08/05 00:40:44;;;;;;;10.85;3.22;;;;;;;17.89;69.01;101658.19;7392095;19;20439;-68
2023/08/05 00:43:11;;;;;;;8.30;2.55;;;;;;;17.88;69.19;101648.44;7392623;19;20069;-67
2023/08/05 00:45:39;;;;;;;14.88;3.22;;;;;;;17.81;69.46;101660.69;7393073;19;20497;-67
2023/08/05 00:48:06;;;;;;;8.35;2.90;;;;;;;17.76;69.64;101653.94;7393801;19;20010;-67
2023/08/05 00:50:35;;;;;;;8.35;2.90;;;;;;;17.74;69.75;101663.03;7394420;19;20050;-67
2023/08/05 00:53:02;;;;;;;12.00;3.33;;;;;;;17.59;70.16;101659.06;7392082;19;20025;-67
2023/08/05 00:55:30;;;;;;;10.50;2.70;;;;;;;17.58;70.36;101647.50;7394871;19;20018;-72
2023/08/05 00:57:57;;;;;;;10.18;3.28;;;;;;;17.53;70.29;101655.09;7394585;19;20508;-69
2023/08/05 01:00:25;;;;;;;8.80;2.75;;;;;;;17.57;69.87;101655.69;7394303;19;20025;-68
2023/08/05 01:02:52;;;;;;;8.48;2.55;;;;;;;17.57;69.78;101651.16;7390996;19;20523;-70
2023/08/05 01:05:20;;;;;;;7.93;2.58;;;;;;;17.47;69.89;101652.97;7396391;19;20495;-65
2023/08/05 01:07:48;;;;;;;10.35;2.60;;;;;;;17.34;70.10;101655.03;7391179;19;20043;-72
2023/08/05 01:10:16;;;;;;;7.47;2.58;;;;;;;17.42;69.76;101656.06;7392036;19;20044;-63
2023/08/05 01:12:43;;;;;;;8.57;2.60;;;;;;;17.47;69.82;101656.47;7390745;19;20137;-62
2023/08/05 01:15:10;;;;;;;7.57;2.65;;;;;;;17.40;69.73;101652.69;7387484;19;20022;-61
2023/08/05 01:17:38;;;;;;;8.68;2.80;;;;;;;17.40;69.94;101659.84;7390996;19;20015;-72
2023/08/05 01:20:08;;;;;;;7.55;2.50;;;;;;;17.33;69.93;101656.88;7391855;19;20023;-64
2023/08/05 01:22:38;;;;;;;7.28;2.70;;;;;;;17.18;70.39;101661.75;7390356;19;20022;-65
2023/08/05 01:25:30;;;;;;;12.25;2.80;;;;;;;17.16;70.69;101657.50;7391130;19;20038;-65
2023/08/05 01:27:59;;;;;;;7.93;2.80;;;;;;;17.07;70.73;101659.16;7386907;19;20025;-66
2023/08/05 01:30:27;;;;;;;7.63;3.20;;;;;;;16.98;71.37;101662.59;7389289;19;20027;-64
2023/08/05 01:32:58;;;;;;;10.32;3.33;;;;;;;16.99;71.14;101662.47;7387412;19;20094;-65
2023/08/05 01:35:26;;;;;;;11.02;3.17;;;;;;;16.96;71.58;101659.22;7387744;19;20039;-62
2023/08/05 01:37:53;;;;;;;8.48;2.97;;;;;;;17.09;71.20;101661.66;7389261;19;20524;-63
2023/08/05 01:40:21;;;;;;;10.18;3.05;;;;;;;17.12;71.11;101659.59;7390958;19;20015;-66
2023/08/05 01:42:48;;;;;;;11.95;3.55;;;;;;;17.11;70.63;101670.44;7389380;19;20022;-65
2023/08/05 01:45:16;;;;;;;9.90;2.78;;;;;;;17.04;71.32;101672.78;7390531;19;20092;-65
2023/08/05 01:47:43;;;;;;;10.10;3.00;;;;;;;16.91;71.38;101677.50;7390729;19;20042;-66
2023/08/05 01:50:10;;;;;;;9.48;3.28;;;;;;;16.79;71.84;101672.22;7390885;19;20479;-66
2023/08/05 01:52:38;;;;;;;9.57;3.08;;;;;;;16.90;71.45;101668.59;7389025;19;20019;-63
2023/08/05 01:55:05;;;;;;;8.82;2.55;;;;;;;16.89;71.83;101674.09;7390947;19;20059;-64
2023/08/05 01:57:33;;;;;;;6.95;2.85;;;;;;;16.93;71.14;101665.69;7389510;19;20496;-63
2023/08/05 02:00:00;;;;;;;9.35;3.03;;;;;;;16.79;71.63;101669.56;7390105;19;20028;-63
2023/08/05 02:02:28;;;;;;;8.48;2.80;;;;;;;16.75;71.52;101665.44;7389462;19;20063;-63
2023/08/05 02:04:55;;;;;;;7.50;2.75;;;;;;;16.73;71.81;101667.38;7393971;19;20018;-63
2023/08/05 02:07:23;;;;;;;10.70;3.28;;;;;;;16.82;71.75;101665.75;7387486;19;20041;-63
2023/08/05 02:09:50;;;;;;;7.10;2.90;;;;;;;16.96;71.11;101667.25;7388865;19;20018;-63
2023/08/05 02:12:17;;;;;;;9.40;3.05;;;;;;;17.07;70.58;101659.16;7389185;19;20023;-63
2023/08/05 02:14:45;;;;;;;7.80;3.05;;;;;;;17.05;70.47;101661.09;7389919;19;20019;-63
2023/08/05 02:17:12;;;;;;;10.23;3.05;;;;;;;17.07;70.22;101669.00;7389437;19;20018;-63
2023/08/05 02:19:39;;;;;;;8.52;3.03;;;;;;;17.14;70.08;101668.34;7388883;19;20023;-63
2023/08/05 02:22:07;;;;;;;10.05;2.88;;;;;;;17.03;70.78;101673.78;7389409;19;20100;-63
2023/08/05 02:24:34;;;;;;;7.45;3.10;;;;;;;17.01;70.48;101663.19;7387812;19;20091;-63
2023/08/05 02:27:01;;;;;;;9.25;3.38;;;;;;;17.05;70.21;101661.09;7390666;19;20097;-63
2023/08/05 02:29:29;;;;;;;11.02;3.63;;;;;;;17.08;70.14;101666.19;7397418;19;20043;-63
2023/08/05 02:31:56;;;;;;;8.90;3.20;;;;;;;17.05;70.32;101675.31;7396505;19;20275;-62
2023/08/05 02:34:23;;;;;;;8.02;2.88;;;;;;;17.07;70.25;101674.34;7396896;19;20048;-63
2023/08/05 02:36:51;;;;;;;11.48;3.50;;;;;;;16.99;70.40;101678.53;7395792;19;20089;-64
2023/08/05 02:39:18;;;;;;;7.80;3.28;;;;;;;16.96;71.05;101675.28;7396901;19;20019;-64
2023/08/05 02:41:47;;;;;;;9.43;3.50;;;;;;;16.88;70.66;101665.22;7396095;19;20026;-64
2023/08/05 02:44:15;;;;;;;7.47;3.00;;;;;;;16.87;70.79;101670.72;7396929;19;20044;-64
2023/08/05 02:46:42;;;;;;;9.52;3.58;;;;;;;16.82;70.72;101671.09;7394434;19;20019;-64
2023/08/05 02:49:10;;;;;;;8.52;3.33;;;;;;;16.75;71.16;101673.47;7396699;19;20014;-64
2023/08/05 02:51:37;;;;;;;9.02;3.22;;;;;;;16.76;70.83;101680.50;7396080;19;20029;-64
2023/08/05 02:54:04;;;;;;;8.30;3.22;;;;;;;16.77;71.15;101692.91;7395161;19;20037;-64
2023/08/05 02:56:34;;;;;;;9.27;3.28;;;;;;;16.83;70.81;101698.69;7395582;19;20030;-65
2023/08/05 02:59:01;;;;;;;11.52;3.60;;;;;;;16.78;70.88;101680.38;7394356;19;20018;-65
2023/08/05 03:01:29;;;;;;;8.63;3.20;;;;;;;16.60;71.42;101680.09;7394344;19;20021;-68
2023/08/05 03:03:56;;;;;;;7.40;3.45;;;;;;;16.53;71.58;101674.41;7397818;19;20010;-64
2023/08/05 03:06:23;;;;;;;8.43;3.45;;;;;;;16.43;71.97;101677.97;7392277;19;20547;-64
2023/08/05 03:08:51;;;;;;;9.93;3.60;;;;;;;16.53;71.63;101686.94;7395895;19;20521;-63
2023/08/05 03:11:18;;;;;;;9.50;3.25;;;;;;;16.54;72.19;101692.13;7395694;19;20039;-63
2023/08/05 03:13:45;;;;;;;8.77;3.50;;;;;;;16.39;71.92;101697.91;7396036;19;20022;-63
2023/08/05 03:16:14;;;;;;;9.65;3.53;;;;;;;16.30;72.52;101697.72;7394583;19;20032;-63
2023/08/05 03:18:41;;;;;;;9.77;3.47;;;;;;;16.10;73.14;101674.44;7395482;19;20015;-66
2023/08/05 03:21:09;;;;;;;8.13;3.67;;;;;;;16.11;73.40;101672.63;7395349;19;20018;-66
2023/08/05 03:23:36;;;;;;;12.55;4.22;;;;;;;16.08;73.45;101674.56;7392308;19;20023;-65
2023/08/05 03:26:03;;;;;;;6.53;3.42;;;;;;;16.22;72.96;101672.59;7394772;19;20362;-63
2023/08/05 03:28:31;;;;;;;7.75;3.60;;;;;;;16.09;73.39;101670.06;7393130;19;20022;-64
2023/08/05 03:30:59;;;;;;;13.45;3.90;;;;;;;15.94;73.62;101661.50;7395096;19;20704;-63
2023/08/05 03:33:26;;;;;;;10.15;3.85;;;;;;;15.90;73.87;101656.53;7391732;19;20332;-63
2023/08/05 03:35:54;;;;;;;11.02;3.80;;;;;;;15.84;74.11;101650.72;7394381;19;20039;-63
2023/08/05 03:38:22;;;;;;;9.20;3.70;;;;;;;15.79;74.46;101650.22;7392711;19;20018;-63
2023/08/05 03:40:49;;;;;;;10.93;4.43;;;;;;;15.77;74.57;101636.16;7392881;19;20546;-63
2023/08/05 03:43:16;;;;;;;9.45;3.72;;;;;;;15.67;74.92;101637.03;7392314;19;20066;-63
2023/08/05 03:45:51;;;;;;;11.55;4.75;;;;;;;15.88;74.45;101631.78;7393465;19;20025;-63
2023/08/05 03:48:18;;;;;;;10.20;4.90;;;;;;;15.93;73.94;101627.75;7392395;19;20018;-62
2023/08/05 03:50:46;;;;;;;11.18;4.97;;;;;;;16.08;73.82;101629.16;7394286;19;20022;-63
2023/08/05 03:53:13;;;;;;;12.85;4.55;;;;;;;16.05;73.54;101624.06;7392319;19;20007;-64
2023/08/05 03:55:40;;;;;;;13.15;4.60;;;;;;;16.08;73.77;101626.47;7393633;19;20018;-65
2023/08/05 03:58:08;;;;;;;12.32;4.53;;;;;;;16.09;73.25;101620.16;7394545;19;20105;-63
2023/08/05 04:00:39;;;;;;;13.00;4.55;;;;;;;15.85;74.16;101619.50;7393552;19;20044;-63
2023/08/05 04:03:07;;;;;;;8.82;3.65;;;;;;;15.72;74.94;101618.81;7392341;19;20026;-61
2023/08/05 04:05:34;;;;;;;10.70;4.40;;;;;;;15.53;75.57;101606.94;7393343;19;20023;-60
2023/08/05 04:08:01;;;;;;;11.70;4.15;;;;;;;15.73;75.18;101617.84;7392423;19;20026;-63
2023/08/05 04:10:30;;;;;;;13.07;4.03;;;;;;;15.92;74.30;101617.19;7394043;19;20015;-63
2023/08/05 04:12:58;;;;;;;14.10;4.63;;;;;;;15.73;74.42;101612.50;7392025;19;20399;-62
2023/08/05 04:15:28;;;;;;;11.88;4.75;;;;;;;15.45;75.53;101612.03;7393135;19;20019;-63
2023/08/05 04:17:59;;;;;;;11.32;4.50;;;;;;;15.42;75.91;101606.97;7393335;19;20086;-61
2023/08/05 04:20:28;;;;;;;11.35;4.53;;;;;;;15.51;75.35;101600.03;7393961;19;20089;-62
2023/08/05 04:22:55;;;;;;;14.15;4.88;;;;;;;15.45;75.77;101593.34;7391922;19;20048;-64
2023/08/05 04:25:24;;;;;;;11.43;4.72;;;;;;;15.45;75.82;101597.84;7393058;19;20491;-62
2023/08/05 04:27:51;;;;;;;12.52;4.72;;;;;;;15.53;75.85;101598.94;7391585;19;20014;-65
2023/08/05 04:30:18;;;;;;;14.63;4.72;;;;;;;15.50;75.67;101593.84;7393345;19;20070;-66
2023/08/05 04:32:46;;;;;;;14.57;5.00;;;;;;;15.46;75.97;101592.38;7390093;19;20019;-64
2023/08/05 04:35:13;;;;;;;11.73;4.93;;;;;;;15.52;75.96;101599.03;7393497;19;20022;-63
2023/08/05 04:37:41;;;;;;;10.85;5.28;;;;;;;15.44;75.90;101586.31;7392541;19;20022;-63
2023/08/05 04:40:10;;;;;;;13.73;4.70;;;;;;;15.68;75.11;101583.53;7393167;19;20022;-63
2023/08/05 04:42:37;;;;;;;11.95;4.40;;;;;;;15.70;75.31;101591.41;7390211;19;20018;-64
2023/08/05 04:45:05;;;;;;;13.57;4.57;;;;;;;15.68;75.12;101582.66;7392622;19;20093;-64
2023/08/05 04:47:32;;;;;;;9.70;4.93;;;;;;;15.72;75.18;101590.31;7391007;19;20081;-63
2023/08/05 04:50:00;;;;;;;10.95;4.82;;;;;;;15.83;74.66;101587.59;7391874;19;20115;-64
2023/08/05 04:52:28;;;;;;;10.93;4.13;;;;;;;15.91;74.21;101588.75;7389734;19;20022;-64
2023/08/05 04:54:55;;;;;;;10.75;3.90;;;;;;;16.05;73.46;101591.97;7392424;19;20552;-64
2023/08/05 04:57:23;;;;;;;10.18;3.45;;;;;;;15.98;73.58;101595.28;7391361;19;20040;-65
2023/08/05 04:59:50;;;;;;;9.48;4.05;;;;;;;16.14;72.89;101593.06;7392400;19;20028;-65
2023/08/05 05:02:17;;;;;;;9.60;3.00;;;;;;;16.32;72.35;101604.84;7391694;19;20460;-64
2023/08/05 05:04:45;;;;;;;8.68;3.33;;;;;;;16.33;71.78;101603.03;7394631;19;20122;-65
2023/08/05 05:07:12;;;;;;;9.43;3.50;;;;;;;16.31;71.82;101591.63;7390353;19;20015;-65
2023/08/05 05:09:39;;;;;;;10.38;3.60;;;;;;;16.40;71.56;101590.00;7391773;19;20019;-65
2023/08/05 05:12:08;;;;;;;10.20;3.30;;;;;;;16.42;71.48;101586.22;7391203;19;20048;-66
2023/08/05 05:14:43;;;;;;;7.35;3.10;;;;;;;16.51;71.58;101584.59;7392032;19;20019;-65
2023/08/05 05:17:10;;;;;;;9.95;3.30;;;;;;;16.39;72.10;101588.31;7390985;19;20031;-65
2023/08/05 05:19:37;;;;;;;7.93;3.10;;;;;;;16.36;72.07;101591.22;7392167;19;20023;-64
2023/08/05 05:22:05;;;;;;;8.80;3.03;;;;;;;16.38;71.98;101594.63;7390516;19;20699;-60
2023/08/05 05:24:32;;;;;;;9.65;3.63;;;;;;;16.44;72.08;101596.78;7390072;19;20018;-60
2023/08/05 05:27:00;;;;;;;10.52;3.55;;;;;;;16.44;72.22;101600.28;7390021;19;20094;-61
2023/08/05 05:29:30;;;;;;;12.07;3.80;;;;;;;16.52;72.05;101594.28;7391398;19;20018;-61
2023/08/05 05:31:58;;;;;;;7.57;3.70;;;;;;;16.59;71.38;101598.13;7389892;19;20022;-63
2023/08/05 05:34:25;;;;;;;9.25;3.42;;;;;;;16.56;71.20;101596.59;7389232;19;20476;-62
2023/08/05 05:36:52;;;;;;;9.70;3.13;;;;;;;16.55;71.36;101597.56;7389876;19;20078;-65
2023/08/05 05:39:20;;;;;;;8.77;3.20;;;;;;;16.58;71.08;101601.81;7391328;19;20040;-62
2023/08/05 05:41:47;;;;;;;7.72;3.20;;;;;;;16.60;71.09;101609.69;7390487;19;20015;-63
2023/08/05 05:44:14;;;;;;;6.90;3.40;;;;;;;16.64;70.71;101609.31;7390610;19;20083;-64
2023/08/05 05:46:43;;;;;;;10.13;3.22;;;;;;;16.69;70.43;101616.94;7389702;19;20070;-64
2023/08/05 05:49:10;;;;;;;9.63;3.40;;;;;;;16.75;70.15;101611.06;7390650;19;20524;-62
2023/08/05 05:51:38;;;;;;;10.65;3.30;;;;;;;16.77;70.04;101618.00;7390013;19;20014;-61
2023/08/05 05:54:05;;;;;;;8.80;3.08;;;;;;;16.77;70.10;101603.78;7390634;19;20043;-61
2023/08/05 05:56:32;;;;;;;8.68;3.45;;;;;;;16.83;70.34;101613.09;7388536;19;20023;-60
2023/08/05 05:59:00;;;;;;;8.13;3.28;;;;;;;16.87;70.13;101609.19;7390446;19;20089;-60
2023/08/05 06:01:28;;;;;;;8.13;2.85;;;;;;;16.95;69.75;101606.69;7392553;19;20024;-61
2023/08/05 06:03:55;;;;;;;8.70;2.60;;;;;;;16.97;69.96;101599.38;7397680;19;20014;-61
2023/08/05 06:06:22;;;;;;;6.70;2.47;;;;;;;16.99;69.68;101598.25;7397686;19;20021;-60
2023/08/05 06:08:50;;;;;;;7.07;2.80;;;;;;;17.04;70.31;101604.03;7393986;19;20011;-59
2023/08/05 06:11:17;;;;;;;7.72;2.90;;;;;;;17.09;69.87;101605.47;7397908;19;20026;-61
2023/08/05 06:13:45;;;;;;;10.07;3.30;;;;;;;17.10;69.83;101602.69;7398029;19;20018;-60
2023/08/05 06:16:12;;;;;;;6.80;2.50;;;;;;;17.14;69.33;101605.94;7396602;19;20048;-61
2023/08/05 06:18:39;;;;;;;9.73;2.92;;;;;;;17.16;69.23;101604.78;7397698;19;20035;-61
2023/08/05 06:21:07;;;;;;;7.82;2.60;;;;;;;17.17;69.31;101597.59;7397259;19;20018;-61
2023/08/05 06:23:34;;;;;;;10.13;2.65;;;;;;;17.19;68.93;101615.25;7394262;19;20484;-62
2023/08/05 06:26:01;;;;;;;7.03;2.60;;;;;;;17.22;68.12;101614.13;7396632;19;20018;-62
2023/08/05 06:28:29;;;;;;;6.22;2.28;;;;;;;17.26;67.94;101608.38;7394099;19;20043;-66
2023/08/05 06:30:56;;;;;;;10.98;2.67;;;;;;;17.34;67.64;101613.03;7397587;19;20064;-64
2023/08/05 06:33:23;;;;;;;5.38;2.30;;;;;;;17.36;67.80;101603.06;7394711;19;20367;-65
2023/08/05 06:35:51;;;;;;;8.35;1.80;;;;;;;17.38;67.18;101609.09;7395757;19;20094;-65
2023/08/05 06:38:18;;;;;;;7.07;2.20;;;;;;;17.38;67.11;101605.59;7396544;19;20033;-65
2023/08/05 06:40:46;;;;;;;7.40;2.13;;;;;;;17.43;66.64;101601.50;7397150;19;20444;-65
2023/08/05 06:43:13;;;;;;;8.00;2.38;;;;;;;17.47;67.03;101602.91;7393643;19;20019;-65
2023/08/05 06:45:40;;;;;;;7.80;2.30;;;;;;;17.48;67.11;101596.59;7395683;19;20030;-65
2023/08/05 06:48:08;;;;;;;7.28;2.20;;;;;;;17.54;66.72;101611.25;7393632;19;20116;-67
2023/08/05 06:50:35;;;;;;;7.50;1.92;;;;;;;17.59;66.85;101614.41;7396586;19;20491;-64
2023/08/05 06:53:03;;;;;;;8.45;2.20;;;;;;;17.67;66.92;101617.22;7393939;19;20023;-65
2023/08/05 06:55:30;;;;;;;5.75;2.10;;;;;;;17.73;66.92;101613.97;7395859;19;20085;-63
2023/08/05 06:57:58;;;;;;;7.93;2.38;;;;;;;17.75;66.69;101606.69;7396327;19;20039;-63
2023/08/05 07:00:27;;;;;;;8.45;2.30;;;;;;;17.79;66.80;101604.59;7395739;19;20067;-63
2023/08/05 07:02:54;;;;;;;7.75;2.72;;;;;;;17.75;66.85;101603.16;7394239;19;20017;-63
2023/08/05 07:05:22;;;;;;;9.73;2.22;;;;;;;17.75;67.17;101595.97;7400168;19;20055;-65
2023/08/05 07:07:49;;;;;;;10.25;2.70;;;;;;;17.74;67.19;101601.41;7394885;19;20094;-66
2023/08/05 07:10:19;;;;;;;7.30;2.40;;;;;;;17.75;66.96;101593.28;7395515;19;20066;-66
2023/08/05 07:12:46;;;;;;;8.80;2.10;;;;;;;17.80;66.19;101594.72;7393907;19;20483;-65
2023/08/05 07:15:14;;;;;;;5.85;2.17;;;;;;;17.77;65.91;101590.47;7395150;19;20026;-66
2023/08/05 07:17:41;;;;;;;8.10;2.20;;;;;;;17.80;65.60;101589.34;7395334;19;20022;-62
2023/08/05 07:20:09;;;;;;;8.10;2.05;;;;;;;17.86;65.29;101586.09;7395889;19;20067;-63
2023/08/05 07:22:36;;;;;;;5.93;2.28;;;;;;;17.90;65.74;101585.69;7394387;19;20025;-62
2023/08/05 07:25:04;;;;;;;7.63;2.45;;;;;;;17.96;65.11;101586.94;7395456;19;20471;-61
2023/08/05 07:27:32;;;;;;;6.35;2.00;;;;;;;18.06;64.10;101582.44;7394438;19;20078;-62
2023/08/05 07:29:59;;;;;;;6.97;2.10;;;;;;;18.01;64.20;101572.16;7395677;19;20028;-61
2023/08/05 07:32:29;;;;;;;6.28;1.98;;;;;;;18.03;63.39;101578.22;7394561;19;20354;-63
2023/08/05 07:34:56;;;;;;;3.92;1.70;;;;;;;18.10;63.64;101570.44;7395510;19;20082;-64
2023/08/05 07:37:24;;;;;;;4.95;2.10;;;;;;;18.18;64.07;101584.00;7394643;19;20015;-62
2023/08/05 07:39:52;;;;;;;5.85;2.15;;;;;;;18.25;63.15;101581.59;7395210;19;20018;-63
2023/08/05 07:42:22;;;;;;;7.95;2.30;;;;;;;18.31;62.87;101577.47;7393474;19;20033;-63
2023/08/05 07:44:52;;;;;;;5.07;2.03;;;;;;;18.35;62.94;101570.84;7395155;19;20022;-63
2023/08/05 07:47:19;;;;;;;5.22;1.90;;;;;;;18.42;62.36;101569.28;7393946;19;20064;-64
2023/08/05 07:49:48;;;;;;;6.88;1.90;;;;;;;18.45;61.72;101572.53;7394835;19;20388;-64
2023/08/05 07:52:15;;;;;;;6.65;1.95;;;;;;;18.54;61.93;101575.31;7391944;19;20019;-64
2023/08/05 07:54:45;;;;;;;6.00;1.70;;;;;;;18.59;60.57;101565.88;7393006;19;20420;-64
2023/08/05 07:57:12;;;;;;;4.32;1.70;;;;;;;18.56;60.43;101566.16;7391732;19;20044;-63
2023/08/05 07:59:39;;;;;;;5.07;1.88;;;;;;;18.55;60.48;101556.41;7392343;19;20064;-65
2023/08/05 08:02:10;;;;;;;8.00;1.88;;;;;;;18.52;60.33;101552.19;7393937;19;20025;-64
2023/08/05 08:04:38;;;;;;;5.65;2.00;;;;;;;18.52;60.22;101554.00;7397264;19;20480;-64
2023/08/05 08:07:05;;;;;;;5.18;1.95;;;;;;;18.39;60.07;101545.41;7393531;19;20028;-66
2023/08/05 08:09:33;;;;;;;4.25;1.90;;;;;;;18.37;59.55;101547.41;7392264;19;20039;-65
2023/08/05 08:12:00;;;;;;;5.40;1.90;;;;;;;18.55;59.45;101547.53;7392890;19;20030;-64
2023/08/05 08:14:28;;;;;;;4.88;1.73;;;;;;;18.48;59.42;101537.38;7393851;19;20013;-64
2023/08/05 08:16:55;;;;;;;5.30;2.05;;;;;;;18.43;59.63;101534.28;7393011;19;20090;-64
2023/08/05 08:19:23;;;;;;;6.07;1.80;;;;;;;18.43;59.28;101520.00;7393751;19;20053;-64
2023/08/05 08:21:50;;;;;;;4.35;1.70;;;;;;;18.59;59.03;101524.78;7393404;19;20051;-65
2023/08/05 08:24:18;;;;;;;6.45;2.00;;;;;;;18.67;58.79;101531.09;7392241;19;20039;-64
2023/08/05 08:26:45;;;;;;;6.60;1.92;;;;;;;18.72;58.86;101528.84;7392464;19;20026;-65
2023/08/05 08:29:12;;;;;;;6.68;1.83;;;;;;;18.82;58.19;101536.03;7391500;19;20022;-65
2023/08/05 08:31:40;;;;;;;7.85;1.95;;;;;;;18.87;58.09;101544.47;7393286;19;20023;-62
2023/08/05 08:34:07;;;;;;;4.32;1.50;;;;;;;18.83;57.55;101530.50;7393510;19;20022;-62
2023/08/05 08:36:35;;;;;;;4.20;1.52;;;;;;;18.78;56.71;101524.72;7392470;19;20014;-62
2023/08/05 08:39:02;;;;;;;4.95;1.80;;;;;;;18.85;57.40;101531.22;7393650;19;20480;-63
2023/08/05 08:41:34;;;;;;;4.80;1.50;;;;;;;18.97;57.13;101518.44;7392002;19;20118;-63
2023/08/05 08:44:03;;;;;;;;;;;;;;;18.92;57.97;101520.69;7392432;19;20043;-62
2023/08/05 08:46:30;;;;;;;4.88;1.90;;;;;;;18.98;58.03;101526.31;7392046;19;19925;-62
2023/08/05 08:48:58;;;;;;;5.57;1.88;;;;;;;19.13;57.39;101523.16;7391201;19;20021;-63
2023/08/05 08:51:26;;;;;;;3.58;1.60;;;;;;;19.19;56.75;101520.72;7390549;19;20017;-62
2023/08/05 08:53:55;;;;;;;3.78;1.27;;;;;;;19.15;55.83;101505.03;7392428;19;20021;-61
2023/08/05 08:56:22;;;;;;;5.70;1.80;;;;;;;19.14;56.29;101501.50;7391708;19;20040;-60
2023/08/05 08:58:49;;;;;;;11.43;1.90;;;;;;;19.16;56.84;101512.97;7391996;19;20018;-60
2023/08/05 09:01:18;;;;;;;6.03;1.77;;;;;;;19.21;55.73;101507.97;7390120;19;20018;-62
2023/08/05 09:03:50;;;;;;;4.25;1.73;;;;;;;19.24;55.18;101506.84;7393552;19;20031;-62
2023/08/05 09:06:22;;;;;;;4.30;1.70;;;;;;;19.17;55.77;101497.69;7389791;19;20110;-62
2023/08/05 09:08:50;;;;;;;7.35;2.00;;;;;;;19.19;56.07;101488.50;7389117;19;20025;-64
2023/08/05 09:11:17;;;;;;;5.00;1.80;;;;;;;19.23;55.31;101483.63;7391929;19;20707;-64
2023/08/05 09:13:45;;;;;;;6.03;1.67;;;;;;;19.28;55.10;101499.31;7391904;19;20018;-65
2023/08/05 09:16:15;;;;;;;5.55;1.77;;;;;;;19.28;55.08;101483.22;7391104;19;20011;-64
2023/08/05 09:18:55;;;;;;;5.20;1.63;;;;;;;19.26;54.66;101491.41;7391695;19;20086;-62
2023/08/05 09:21:27;;;;;;;5.03;1.95;;;;;;;19.23;54.98;101491.69;7391872;19;20495;-64
2023/08/05 09:23:56;;;;;;;7.80;2.03;;;;;;;19.34;54.82;101488.78;7392102;19;20022;-63
2023/08/05 09:26:30;;;;;;;6.90;2.05;;;;;;;19.51;55.38;101495.19;7389812;19;20027;-66
2023/08/05 09:28:59;;;;;;;7.32;1.73;;;;;;;19.57;55.05;101497.25;7390376;19;20168;-65
2023/08/05 09:31:26;;;;;;;4.60;1.70;;;;;;;19.67;54.88;101483.78;7391648;19;20488;-65
2023/08/05 09:33:54;;;;;;;5.82;1.90;;;;;;;19.70;55.47;101470.03;7390043;19;20053;-64
2023/08/05 09:36:25;;;;;;;4.63;1.80;;;;;;;19.82;55.50;101484.91;7387756;19;20022;-65
2023/08/05 09:39:02;;;;;;;8.57;2.60;;;;;;;19.90;56.38;101478.75;7390835;19;20021;-65
2023/08/05 09:41:31;;;;;;;4.70;1.80;;;;;;;19.84;55.37;101472.19;7389326;19;20093;-68
2023/08/05 09:43:59;;;;;;;7.68;1.98;;;;;;;19.73;55.09;101467.03;7389829;19;20082;-65
2023/08/05 09:46:38;;;;;;;6.40;1.90;;;;;;;19.81;55.73;101460.88;7389796;19;20031;-65
2023/08/05 09:49:08;;;;;;;3.92;1.92;;;;;;;19.78;55.96;101453.97;7389797;19;20525;-65
2023/08/05 09:51:38;;;;;;;4.78;1.80;;;;;;;19.89;56.07;101448.34;7389392;19;20015;-65
2023/08/05 09:54:08;;;;;;;4.63;1.77;;;;;;;19.89;55.67;101445.66;7394946;19;20078;-65
2023/08/05 09:56:37;;;;;;;3.47;1.75;;;;;;;19.81;56.16;101444.75;7387839;19;20370;-65
2023/08/05 09:59:06;;;;;;;6.47;1.70;;;;;;;19.80;56.56;101445.75;7390484;19;20010;-66
2023/08/05 10:01:36;;;;;;;4.60;1.98;;;;;;;19.89;56.82;101444.81;7389389;19;20085;-66
2023/08/05 10:04:04;;;;;;;7.78;2.00;;;;;;;20.01;55.73;101437.34;7392150;19;20018;-64
2023/08/05 10:06:37;;;;;;;6.95;1.70;;;;;;;20.00;55.28;101436.50;7389305;19;20022;-65
2023/08/05 10:09:05;;;;;;;6.18;2.15;;;;;;;19.89;55.07;101442.13;7389151;19;20086;-64
2023/08/05 10:11:38;;;;;;;6.50;1.70;;;;;;;19.99;54.21;101429.41;7390140;19;20374;-65
2023/08/05 10:14:07;;;;;;;5.03;1.80;;;;;;;20.06;55.40;101438.53;7389247;19;20014;-66
2023/08/05 10:16:37;;;;;;;4.45;1.90;;;;;;;20.18;55.21;101436.41;7387785;19;20045;-66
2023/08/05 10:19:05;;;;;;;5.60;1.75;;;;;;;20.25;55.31;101436.63;7389280;19;20039;-65
2023/08/05 10:21:40;;;;;;;5.45;1.73;;;;;;;20.20;54.66;101427.19;7389531;19;20034;-65
2023/08/05 10:24:08;;;;;;;8.18;1.98;;;;;;;20.27;53.84;101430.09;7389233;19;20451;-64
2023/08/05 10:26:45;;;;;;;4.75;1.90;;;;;;;20.44;54.39;101420.25;7389055;19;20020;-65
2023/08/05 10:29:29;;;;;;;8.18;1.95;;;;;;;20.47;54.96;101425.31;7388342;19;20044;-64
2023/08/05 10:32:10;;;;;;;15.13;2.03;;;;;;;20.50;54.90;101411.56;7389182;19;20476;-64
2023/08/05 10:34:38;;;;;;;6.35;1.95;;;;;;;20.49;54.89;101403.63;7389344;19;20021;-66
2023/08/05 10:37:05;;;;;;;7.55;2.17;;;;;;;20.66;55.90;101400.03;7388797;19;20014;-65
2023/08/05 10:39:44;;;;;;;5.50;2.58;;;;;;;20.87;55.64;101397.75;7389295;19;20091;-66
2023/08/05 10:42:27;;;;;;;5.22;2.00;;;;;;;20.98;55.08;101393.03;7388375;19;20022;-64
2023/08/05 10:44:55;;;;;;;5.60;1.67;;;;;;;20.94;55.46;101392.53;7389467;19;20080;-65
2023/08/05 10:47:22;;;;;;;6.35;2.03;;;;;;;21.08;54.44;101378.41;7389786;19;20085;-64
2023/08/05 10:49:55;;;;;;;8.52;2.33;;;;;;;21.12;54.07;101382.47;7394399;19;20015;-65
2023/08/05 10:52:27;;;;;;;6.22;1.95;;;;;;;20.89;53.34;101370.66;7394457;19;20043;-66
2023/08/05 10:54:55;;;;;;;5.45;1.90;;;;;;;20.79;52.76;101359.16;7396119;19;20031;-66
2023/08/05 10:57:34;;;;;;;5.20;1.63;;;;;;;20.82;54.05;101364.22;7395461;19;20014;-65
2023/08/05 11:00:03;;;;;;;5.40;1.83;;;;;;;20.94;54.17;101352.13;7395720;19;20491;-65
2023/08/05 11:02:31;;;;;;;5.75;1.90;;;;;;;21.13;53.62;101359.88;7393928;19;20486;-65
2023/08/05 11:05:06;;;;;;;6.75;2.00;;;;;;;21.09;52.99;101350.47;7397380;19;20039;-65
2023/08/05 11:07:38;;;;;;;4.30;1.60;;;;;;;20.80;52.19;101345.56;7394937;19;20068;-63
2023/08/05 11:10:06;;;;;;;4.85;1.80;;;;;;;20.75;52.92;101350.56;7393564;19;20019;-64
2023/08/05 11:12:34;;;;;;;5.30;1.92;;;;;;;20.79;53.35;101341.16;7394326;19;20022;-65
2023/08/05 11:15:01;;;;;;;5.38;1.90;;;;;;;20.98;52.67;101340.00;7395747;19;20019;-65
2023/08/05 11:17:29;;;;;;;6.10;1.80;;;;;;;20.90;52.48;101337.31;7392977;19;20022;-64
2023/08/05 11:19:58;;;;;;;6.68;1.83;;;;;;;20.75;52.13;101342.50;7396496;19;20025;-65
2023/08/05 11:22:30;;;;;;;4.72;1.75;;;;;;;20.65;53.20;101329.22;7394200;19;20089;-65
2023/08/05 11:25:03;;;;;;;5.00;1.90;;;;;;;20.76;52.40;101321.81;7391825;19;20014;-67
2023/08/05 11:27:39;;;;;;;5.10;1.80;;;;;;;20.92;53.16;101335.31;7393983;19;20070;-66
2023/08/05 11:30:14;;;;;;;4.63;1.65;;;;;;;21.06;52.23;101323.03;7393769;19;20445;-68